Time;durP1;ratioP1;P1;durP2;ratioP2;P2;SDS_P1;SDS_P2;PMS_P1;PMS_P2;Temp;Humidity;BMP_temperature;BMP_pressure;BME280_temperature;BME280_humidity;BME280_pressure;Samples;Min_cycle;Max_cycle;Signal;HPM_P1;HPM_P2
2023/02/17 00:01:50;;;;;;;2.97;2.77;;;11.30;99.90;;;;;;4813907;29;20247;-63
2023/02/17 00:04:56;;;;;;;3.17;2.87;;;11.20;99.90;;;;;;4817383;29;20251;-64
2023/02/17 00:08:03;;;;;;;3.07;2.90;;;11.20;99.90;;;;;;4826846;29;20235;-63
2023/02/17 00:11:10;;;;;;;3.00;2.90;;;11.20;99.90;;;;;;4821241;29;20699;-64
2023/02/17 00:14:18;;;;;;;3.27;3.07;;;11.20;99.90;;;;;;4816992;29;20247;-63
2023/02/17 00:17:24;;;;;;;3.30;3.10;;;11.20;99.90;;;;;;4817733;29;20597;-63
2023/02/17 00:20:30;;;;;;;3.30;3.20;;;11.20;99.90;;;;;;4823372;29;20346;-63
2023/02/17 00:23:37;;;;;;;3.20;3.00;;;11.10;99.90;;;;;;4820454;29;20344;-63
2023/02/17 00:26:43;;;;;;;3.23;3.07;;;11.10;99.90;;;;;;4820162;29;20223;-64
2023/02/17 00:29:49;;;;;;;3.77;3.50;;;11.10;99.90;;;;;;4818601;29;20304;-64
2023/02/17 00:32:55;;;;;;;3.90;3.57;;;11.10;99.90;;;;;;4815764;29;20245;-63
2023/02/17 00:36:04;;;;;;;3.70;3.50;;;11.00;99.90;;;;;;4816061;29;20288;-63
2023/02/17 00:39:13;;;;;;;5.53;3.67;;;11.00;99.90;;;;;;4814157;29;20782;-63
2023/02/17 00:42:19;;;;;;;3.63;3.43;;;10.90;99.90;;;;;;4819605;29;20789;-64
2023/02/17 00:45:25;;;;;;;3.67;3.30;;;11.00;99.90;;;;;;4825880;29;20389;-64
2023/02/17 00:48:31;;;;;;;3.70;3.50;;;10.90;99.90;;;;;;4825036;29;20200;-63
2023/02/17 00:51:37;;;;;;;3.50;3.23;;;10.80;99.90;;;;;;4830921;29;20356;-63
2023/02/17 00:54:45;;;;;;;3.53;3.33;;;10.80;99.90;;;;;;4820550;29;20230;-62
2023/02/17 00:57:51;;;;;;;4.20;3.40;;;10.70;99.90;;;;;;4817722;29;20239;-63
2023/02/17 01:00:58;;;;;;;3.73;3.50;;;10.70;99.90;;;;;;4815256;29;20274;-63
2023/02/17 01:04:05;;;;;;;3.80;3.50;;;10.70;99.90;;;;;;4813514;29;20541;-63
2023/02/17 01:07:11;;;;;;;3.97;3.63;;;10.70;99.90;;;;;;4811339;29;20260;-63
2023/02/17 01:10:19;;;;;;;4.07;3.77;;;10.70;99.90;;;;;;4818109;29;20645;-63
2023/02/17 01:13:25;;;;;;;3.73;3.53;;;10.60;99.90;;;;;;4820876;29;20231;-63
2023/02/17 01:16:34;;;;;;;3.60;3.40;;;10.60;99.90;;;;;;4822740;29;20349;-63
2023/02/17 01:19:39;;;;;;;6.00;4.13;;;10.60;99.90;;;;;;4826766;29;20641;-63
2023/02/17 01:22:45;;;;;;;5.17;4.10;;;10.50;99.90;;;;;;4817341;29;20335;-62
2023/02/17 01:25:53;;;;;;;4.50;4.20;;;10.60;99.90;;;;;;4820445;29;20229;-63
2023/02/17 01:28:59;;;;;;;4.57;4.20;;;10.60;99.90;;;;;;4828223;29;20767;-63
2023/02/17 01:32:05;;;;;;;5.60;5.07;;;10.60;99.90;;;;;;4820236;29;20245;-63
2023/02/17 01:35:12;;;;;;;6.20;5.00;;;10.70;99.90;;;;;;4824203;29;20286;-63
2023/02/17 01:38:18;;;;;;;7.20;5.10;;;10.70;99.90;;;;;;4821842;29;20212;-63
2023/02/17 01:41:27;;;;;;;5.43;4.60;;;10.70;99.90;;;;;;4818105;29;20247;-63
2023/02/17 01:44:33;;;;;;;4.30;4.00;;;10.60;99.90;;;;;;4820015;29;20726;-63
2023/02/17 01:47:39;;;;;;;4.73;4.30;;;10.50;99.90;;;;;;4819030;29;20223;-63
2023/02/17 01:50:48;;;;;;;3.70;3.40;;;10.50;99.90;;;;;;4816644;29;20235;-63
2023/02/17 01:53:59;;;;;;;5.40;3.70;;;10.60;99.90;;;;;;4819707;29;20219;-63
2023/02/17 01:57:06;;;;;;;3.53;3.43;;;10.50;99.90;;;;;;4813844;29;20229;-62
2023/02/17 02:00:16;;;;;;;3.53;3.20;;;10.50;99.90;;;;;;4821710;29;20772;-63
2023/02/17 02:03:22;;;;;;;3.30;2.93;;;10.50;99.90;;;;;;4822170;29;20265;-62
2023/02/17 02:06:29;;;;;;;3.83;2.90;;;10.50;99.90;;;;;;4818804;29;20315;-63
2023/02/17 02:09:40;;;;;;;2.93;2.73;;;10.50;99.90;;;;;;4811481;29;20254;-63
2023/02/17 02:12:47;;;;;;;3.03;2.83;;;10.50;99.90;;;;;;4819992;29;20208;-63
2023/02/17 02:16:00;;;;;;;2.43;2.30;;;10.40;99.90;;;;;;4824404;29;20287;-63
2023/02/17 02:19:26;;;;;;;3.13;2.70;;;10.50;99.90;;;;;;4810287;29;20585;-63
2023/02/17 02:22:47;;;;;;;3.33;2.87;;;10.50;99.90;;;;;;4820077;29;20315;-63
2023/02/17 02:26:26;;;;;;;4.47;2.90;;;10.50;99.90;;;;;;4816515;29;20203;-63
2023/02/17 02:29:59;;;;;;;3.40;3.20;;;10.50;99.90;;;;;;4809366;29;20596;-64
2023/02/17 02:33:13;;;;;;;3.80;3.37;;;10.50;99.90;;;;;;4821621;29;20631;-63
2023/02/17 02:36:25;;;;;;;3.60;3.30;;;10.40;99.90;;;;;;4819810;29;20308;-63
2023/02/17 02:39:37;;;;;;;3.30;3.10;;;10.40;99.90;;;;;;4819336;29;20253;-63
2023/02/17 02:42:44;;;;;;;3.50;3.20;;;10.40;99.90;;;;;;4818924;29;20556;-62
2023/02/17 02:45:50;;;;;;;6.43;3.53;;;10.40;99.90;;;;;;4820457;29;20727;-62
2023/02/17 02:48:58;;;;;;;4.33;3.90;;;10.40;99.90;;;;;;4821919;29;20215;-63
2023/02/17 02:52:15;;;;;;;7.07;3.70;;;10.40;99.90;;;;;;4822186;29;20223;-62
2023/02/17 02:55:29;;;;;;;5.20;3.70;;;10.40;99.90;;;;;;4822694;29;20252;-63
2023/02/17 02:58:45;;;;;;;4.13;3.63;;;10.30;99.90;;;;;;4820327;29;20232;-63
2023/02/17 03:02:01;;;;;;;5.23;4.00;;;10.20;99.90;;;;;;4818839;29;20216;-62
2023/02/17 03:05:14;;;;;;;5.97;4.33;;;10.20;99.90;;;;;;4818945;29;20279;-63
2023/02/17 03:08:26;;;;;;;7.87;4.43;;;10.20;99.90;;;;;;4830180;29;20232;-63
2023/02/17 03:11:34;;;;;;;5.43;4.37;;;10.20;99.90;;;;;;4817859;29;20213;-62
2023/02/17 03:14:43;;;;;;;4.80;4.30;;;10.20;99.90;;;;;;4818075;29;20289;-63
2023/02/17 03:17:48;;;;;;;6.27;4.60;;;10.20;99.90;;;;;;4820554;29;20200;-63
2023/02/17 03:21:02;;;;;;;8.40;5.33;;;10.30;99.90;;;;;;4809194;29;20277;-63
2023/02/17 03:24:08;;;;;;;10.07;4.63;;;10.30;99.90;;;;;;4814742;29;20273;-63
2023/02/17 03:27:14;;;;;;;8.90;4.83;;;10.20;99.90;;;;;;4822630;29;20243;-63
2023/02/17 03:30:20;;;;;;;9.83;4.83;;;10.30;99.90;;;;;;4822130;29;20613;-63
2023/02/17 03:33:26;;;;;;;9.13;4.57;;;10.30;99.90;;;;;;4825052;29;20658;-63
2023/02/17 03:36:34;;;;;;;8.33;5.40;;;10.30;99.90;;;;;;4815231;29;20255;-63
2023/02/17 03:39:40;;;;;;;5.23;4.70;;;10.20;99.90;;;;;;4822367;29;20280;-63
2023/02/17 03:42:46;;;;;;;6.87;4.93;;;10.30;99.90;;;;;;4819316;29;20219;-63
2023/02/17 03:45:52;;;;;;;5.83;4.73;;;10.30;99.90;;;;;;4821647;29;20231;-62
2023/02/17 03:48:57;;;;;;;7.73;5.17;;;10.30;99.90;;;;;;4814409;29;20215;-63
2023/02/17 03:52:05;;;;;;;8.97;5.30;;;10.30;99.90;;;;;;4819506;29;20239;-63
2023/02/17 03:55:11;;;;;;;10.00;5.63;;;10.40;99.90;;;;;;4820541;29;20272;-63
2023/02/17 03:58:17;;;;;;;6.87;5.60;;;10.40;99.90;;;;;;4816539;29;20203;-63
2023/02/17 04:01:23;;;;;;;10.93;5.60;;;10.40;99.90;;;;;;4818096;29;20231;-62
2023/02/17 04:04:29;;;;;;;11.43;5.47;;;10.40;99.90;;;;;;4822648;29;20204;-63
2023/02/17 04:07:37;;;;;;;8.13;5.00;;;10.40;99.90;;;;;;4824097;29;20231;-63
2023/02/17 04:10:43;;;;;;;9.73;5.13;;;10.40;99.90;;;;;;4818711;29;20382;-63
2023/02/17 04:13:49;;;;;;;9.67;6.00;;;10.40;99.90;;;;;;4825019;29;20207;-63
2023/02/17 04:16:55;;;;;;;10.03;5.90;;;10.40;99.90;;;;;;4821534;29;20284;-64
2023/02/17 04:20:01;;;;;;;9.17;5.63;;;10.40;99.90;;;;;;4822721;29;20219;-63
2023/02/17 04:23:10;;;;;;;8.50;5.93;;;10.40;99.90;;;;;;4821081;29;20234;-63
2023/02/17 04:26:16;;;;;;;11.57;6.17;;;10.40;99.90;;;;;;4820142;29;20231;-62
2023/02/17 04:29:21;;;;;;;8.07;5.63;;;10.40;99.90;;;;;;4817947;29;20625;-63
2023/02/17 04:32:27;;;;;;;11.63;6.33;;;10.40;99.90;;;;;;4824441;29;20208;-62
2023/02/17 04:35:33;;;;;;;10.20;5.93;;;10.30;99.90;;;;;;4822316;29;20269;-63
2023/02/17 04:38:40;;;;;;;6.23;5.17;;;10.30;99.90;;;;;;4822851;29;20249;-63
2023/02/17 04:41:47;;;;;;;9.40;5.93;;;10.40;99.90;;;;;;4819158;29;20683;-63
2023/02/17 04:44:52;;;;;;;9.63;5.47;;;10.40;99.90;;;;;;4818469;29;20250;-63
2023/02/17 04:47:59;;;;;;;10.43;5.47;;;10.40;99.90;;;;;;4814029;29;20257;-63
2023/02/17 04:51:05;;;;;;;12.23;6.20;;;10.40;99.90;;;;;;4817570;29;20544;-63
2023/02/17 04:54:13;;;;;;;6.57;5.40;;;10.40;99.90;;;;;;4817444;29;20235;-63
2023/02/17 04:57:19;;;;;;;9.13;5.60;;;10.30;99.90;;;;;;4815887;29;20237;-62
2023/02/17 05:00:25;;;;;;;6.87;5.17;;;10.40;99.90;;;;;;4817294;29;20345;-63
2023/02/17 05:03:31;;;;;;;8.40;5.80;;;10.30;99.90;;;;;;4806462;29;20209;-63
2023/02/17 05:06:37;;;;;;;13.27;6.23;;;10.30;99.90;;;;;;4828087;29;20203;-63
2023/02/17 05:09:44;;;;;;;10.10;5.90;;;10.30;99.90;;;;;;4826705;29;20273;-63
2023/02/17 05:12:51;;;;;;;11.17;5.77;;;10.30;99.90;;;;;;4823534;29;20220;-63
2023/02/17 05:15:56;;;;;;;14.83;6.03;;;10.40;99.90;;;;;;4828792;29;20240;-63
2023/02/17 05:19:03;;;;;;;6.83;5.53;;;10.30;99.90;;;;;;4824189;29;20184;-64
2023/02/17 05:22:09;;;;;;;8.80;5.80;;;10.30;99.90;;;;;;4806422;29;20236;-63
2023/02/17 05:25:17;;;;;;;11.37;5.90;;;10.30;99.90;;;;;;4814594;29;20376;-63
2023/02/17 05:28:23;;;;;;;7.07;5.57;;;10.20;99.90;;;;;;4822874;29;20273;-63
2023/02/17 05:31:29;;;;;;;12.67;5.97;;;10.20;99.90;;;;;;4817008;29;20686;-63
2023/02/17 05:34:35;;;;;;;7.10;5.63;;;10.20;99.90;;;;;;4818451;29;20223;-64
2023/02/17 05:37:41;;;;;;;10.03;5.80;;;10.20;99.90;;;;;;4822398;29;20975;-63
2023/02/17 05:40:50;;;;;;;8.63;5.87;;;10.20;99.90;;;;;;4814562;29;20340;-63
2023/02/17 05:43:57;;;;;;;9.60;5.73;;;10.20;99.90;;;;;;4823248;29;20341;-64
2023/02/17 05:47:02;;;;;;;6.93;5.60;;;10.20;99.90;;;;;;4819580;29;20247;-63
2023/02/17 05:50:09;;;;;;;8.80;5.93;;;10.20;99.90;;;;;;4812619;29;20312;-64
2023/02/17 05:53:15;;;;;;;6.97;5.70;;;10.20;99.90;;;;;;4821634;29;20316;-64
2023/02/17 05:56:22;;;;;;;6.47;5.77;;;10.20;99.90;;;;;;4817314;29;20299;-63
2023/02/17 05:59:28;;;;;;;6.27;5.67;;;10.20;99.90;;;;;;4819898;29;20264;-65
2023/02/17 06:02:33;;;;;;;9.47;6.13;;;10.20;99.90;;;;;;4820167;29;20228;-64
2023/02/17 06:05:39;;;;;;;6.93;5.73;;;10.20;99.90;;;;;;4815988;29;20200;-63
2023/02/17 06:08:46;;;;;;;5.93;5.33;;;10.20;99.90;;;;;;4820489;29;20328;-64
2023/02/17 06:11:53;;;;;;;7.63;5.47;;;10.20;99.90;;;;;;4818024;29;20357;-64
2023/02/17 06:14:59;;;;;;;6.20;5.60;;;10.30;99.90;;;;;;4812276;29;20264;-63
2023/02/17 06:18:05;;;;;;;7.23;5.87;;;10.30;99.90;;;;;;4819524;29;20238;-63
2023/02/17 06:21:11;;;;;;;6.70;5.30;;;10.40;99.90;;;;;;4821868;29;20548;-63
2023/02/17 06:24:16;;;;;;;6.13;5.17;;;10.40;99.90;;;;;;4820800;29;20228;-63
2023/02/17 06:27:24;;;;;;;7.00;5.63;;;10.40;99.90;;;;;;4819829;29;20273;-64
2023/02/17 06:30:30;;;;;;;10.70;6.13;;;10.50;99.90;;;;;;4818342;29;20236;-63
2023/02/17 06:33:36;;;;;;;5.77;5.17;;;10.50;99.90;;;;;;4816446;29;20215;-62
2023/02/17 06:36:42;;;;;;;7.70;5.70;;;10.60;99.90;;;;;;4816260;29;20745;-63
2023/02/17 06:39:48;;;;;;;5.87;5.30;;;10.50;99.90;;;;;;4815405;29;20738;-63
2023/02/17 06:42:55;;;;;;;6.00;5.50;;;10.50;99.90;;;;;;4810455;29;20216;-63
2023/02/17 06:46:00;;;;;;;6.27;5.67;;;10.60;99.90;;;;;;4809906;29;20708;-64
2023/02/17 06:49:06;;;;;;;7.67;5.30;;;10.60;99.90;;;;;;4813646;29;20233;-63
2023/02/17 06:52:13;;;;;;;5.90;5.30;;;10.60;99.90;;;;;;4818643;29;20276;-63
2023/02/17 06:55:19;;;;;;;5.40;5.00;;;10.60;99.90;;;;;;4820582;29;20259;-63
2023/02/17 06:58:26;;;;;;;5.10;4.70;;;10.60;99.90;;;;;;4818893;29;20204;-63
2023/02/17 07:01:32;;;;;;;6.57;5.03;;;10.60;99.90;;;;;;4811899;29;20237;-63
2023/02/17 07:04:38;;;;;;;5.70;5.20;;;10.70;99.90;;;;;;4826301;29;20258;-63
2023/02/17 07:07:44;;;;;;;5.40;4.90;;;10.70;99.90;;;;;;4831065;29;20227;-63
2023/02/17 07:10:51;;;;;;;5.13;4.60;;;10.70;99.90;;;;;;4811662;29;20267;-63
2023/02/17 07:13:58;;;;;;;4.77;4.43;;;10.70;99.90;;;;;;4829721;29;20239;-63
2023/02/17 07:17:04;;;;;;;5.70;5.27;;;10.70;99.90;;;;;;4823883;29;20228;-64
2023/02/17 07:20:11;;;;;;;5.20;4.90;;;10.80;99.90;;;;;;4825098;29;20594;-63
2023/02/17 07:23:17;;;;;;;5.60;5.10;;;10.80;99.90;;;;;;4825510;29;20242;-63
2023/02/17 07:26:23;;;;;;;5.17;4.77;;;10.80;99.90;;;;;;4825524;29;20353;-63
2023/02/17 07:29:30;;;;;;;5.60;5.20;;;10.80;99.90;;;;;;4826942;29;20377;-63
2023/02/17 07:32:36;;;;;;;4.70;4.40;;;10.80;99.90;;;;;;4825322;29;20232;-63
2023/02/17 07:35:43;;;;;;;4.83;4.53;;;10.90;99.90;;;;;;4820085;29;20296;-63
2023/02/17 07:38:50;;;;;;;4.67;4.33;;;10.90;99.90;;;;;;4809801;29;20274;-63
2023/02/17 07:41:59;;;;;;;4.67;4.37;;;11.00;99.90;;;;;;4816972;29;20204;-63
2023/02/17 07:45:08;;;;;;;4.30;4.10;;;11.00;99.90;;;;;;4815287;29;20246;-63
2023/02/17 07:48:14;;;;;;;4.07;3.77;;;11.00;99.90;;;;;;4821700;29;20231;-64
2023/02/17 07:51:22;;;;;;;4.20;3.90;;;11.00;99.90;;;;;;4819359;29;20715;-63
2023/02/17 07:54:27;;;;;;;3.40;3.30;;;11.00;99.90;;;;;;4822971;29;20233;-63
2023/02/17 07:57:33;;;;;;;3.20;3.10;;;11.00;99.90;;;;;;4824735;29;20220;-63
2023/02/17 08:00:40;;;;;;;2.80;2.70;;;11.10;99.90;;;;;;4816226;29;20281;-63
2023/02/17 08:03:47;;;;;;;2.50;2.40;;;11.10;99.90;;;;;;4818209;29;20288;-63
2023/02/17 08:06:53;;;;;;;2.60;2.50;;;11.20;99.90;;;;;;4816358;29;20204;-63
2023/02/17 08:13:22;;;;;;;2.03;2.03;;;11.20;99.90;;;;;;4816133;29;20645;-63
2023/02/17 08:16:30;;;;;;;2.20;2.10;;;11.20;99.90;;;;;;4821885;29;20596;-63
2023/02/17 08:19:36;;;;;;;1.97;1.87;;;11.30;99.90;;;;;;4821498;29;20212;-63
2023/02/17 08:22:53;;;;;;;1.90;1.90;;;11.30;99.90;;;;;;4820193;29;20266;-63
2023/02/17 08:25:59;;;;;;;2.67;2.00;;;11.30;99.90;;;;;;4821943;29;20235;-63
2023/02/17 08:29:05;;;;;;;1.70;1.70;;;11.30;99.90;;;;;;4823696;29;20338;-63
2023/02/17 08:32:14;;;;;;;1.60;1.60;;;11.40;99.90;;;;;;4820736;29;20228;-63
2023/02/17 08:35:21;;;;;;;1.70;1.70;;;11.50;99.90;;;;;;4829453;29;20203;-63
2023/02/17 08:38:29;;;;;;;1.50;1.50;;;11.50;99.90;;;;;;4824240;29;20207;-63
2023/02/17 08:41:37;;;;;;;1.50;1.50;;;11.50;99.90;;;;;;4826506;29;20272;-62
2023/02/17 08:44:42;;;;;;;1.60;1.60;;;11.60;99.90;;;;;;4817736;29;20289;-63
2023/02/17 08:47:50;;;;;;;1.50;1.50;;;11.60;99.90;;;;;;4818995;29;20239;-63
2023/02/17 08:50:56;;;;;;;2.03;1.70;;;11.70;99.90;;;;;;4822655;29;20261;-63
2023/02/17 08:54:06;;;;;;;2.97;1.50;;;11.80;99.90;;;;;;4824283;29;20289;-63
2023/02/17 08:57:12;;;;;;;1.80;1.80;;;12.00;99.90;;;;;;4822836;29;20216;-63
2023/02/17 09:00:18;;;;;;;1.67;1.67;;;12.00;99.90;;;;;;4822675;29;20747;-63
2023/02/17 09:03:26;;;;;;;2.47;1.80;;;12.20;99.90;;;;;;4816991;29;20363;-63
2023/02/17 09:06:34;;;;;;;1.63;1.57;;;12.10;99.90;;;;;;4807003;29;20919;-63
2023/02/17 09:09:40;;;;;;;1.67;1.63;;;12.10;99.90;;;;;;4816245;29;20244;-63
2023/02/17 09:12:46;;;;;;;1.37;1.37;;;12.10;99.90;;;;;;4814759;29;20208;-63
2023/02/17 09:15:52;;;;;;;1.33;1.10;;;12.30;99.90;;;;;;4817294;29;20272;-63
2023/02/17 09:18:59;;;;;;;1.57;1.50;;;12.40;99.90;;;;;;4820474;29;20244;-63
2023/02/17 09:22:05;;;;;;;1.53;1.03;;;12.60;99.90;;;;;;4817687;29;20223;-64
2023/02/17 09:25:11;;;;;;;1.20;1.10;;;12.80;99.90;;;;;;4814888;29;20260;-63
2023/02/17 09:28:17;;;;;;;1.00;1.00;;;13.10;99.90;;;;;;4815890;29;20243;-63
2023/02/17 09:31:25;;;;;;;1.00;1.00;;;13.30;99.90;;;;;;4813718;29;20251;-63
2023/02/17 09:34:35;;;;;;;0.80;0.80;;;13.60;99.90;;;;;;4815439;29;20259;-63
2023/02/17 09:37:41;;;;;;;1.00;1.00;;;13.80;99.90;;;;;;4815613;29;20211;-63
2023/02/17 09:40:49;;;;;;;1.00;1.00;;;13.80;99.90;;;;;;4820557;29;20228;-63
2023/02/17 09:43:55;;;;;;;1.03;1.03;;;13.70;99.90;;;;;;4814729;29;20698;-63
2023/02/17 09:47:04;;;;;;;1.00;1.00;;;13.40;99.90;;;;;;4814423;29;20732;-64
2023/02/17 09:50:16;;;;;;;1.20;1.10;;;13.40;99.90;;;;;;4814769;29;20215;-62
2023/02/17 09:53:27;;;;;;;3.03;1.20;;;13.40;99.90;;;;;;4809620;29;20249;-63
2023/02/17 09:56:35;;;;;;;1.37;1.20;;;13.40;99.90;;;;;;4819821;29;20280;-63
2023/02/17 09:59:46;;;;;;;1.10;1.10;;;13.30;99.90;;;;;;4813411;29;20216;-63
2023/02/17 10:02:59;;;;;;;1.27;1.20;;;13.30;99.90;;;;;;4810427;29;20787;-63
2023/02/17 10:06:14;;;;;;;1.00;1.00;;;13.30;99.90;;;;;;4815655;29;20252;-63
2023/02/17 10:09:24;;;;;;;1.07;1.00;;;13.40;99.90;;;;;;4813040;29;20450;-63
2023/02/17 10:12:36;;;;;;;1.40;1.33;;;13.60;99.90;;;;;;4820309;29;20251;-63
2023/02/17 10:15:47;;;;;;;1.03;1.00;;;13.80;99.90;;;;;;4814997;29;20557;-63
2023/02/17 10:18:59;;;;;;;1.13;1.10;;;14.00;99.90;;;;;;4815038;29;20304;-63
2023/02/17 10:22:14;;;;;;;1.00;1.00;;;14.10;99.90;;;;;;4826038;29;20203;-63
2023/02/17 10:25:37;;;;;;;1.00;1.00;;;14.10;99.90;;;;;;4813492;29;20584;-63
2023/02/17 10:28:51;;;;;;;1.73;1.13;;;14.10;99.90;;;;;;4815435;29;20212;-63
2023/02/17 10:32:12;;;;;;;1.20;1.20;;;14.00;99.90;;;;;;4817778;29;20240;-63
2023/02/17 10:35:25;;;;;;;1.00;1.00;;;14.00;99.90;;;;;;4813068;29;20725;-63
2023/02/17 10:38:42;;;;;;;1.07;1.07;;;13.90;99.90;;;;;;4802338;29;20253;-63
2023/02/17 10:41:51;;;;;;;0.97;0.97;;;14.10;99.90;;;;;;4813403;29;20313;-63
2023/02/17 10:45:01;;;;;;;1.10;1.10;;;14.40;99.90;;;;;;4818166;29;20291;-63
2023/02/17 10:48:11;;;;;;;1.80;1.40;;;14.40;99.90;;;;;;4818950;29;20321;-64
2023/02/17 10:51:22;;;;;;;2.90;1.20;;;14.40;99.90;;;;;;4821826;29;20216;-63
2023/02/17 10:54:36;;;;;;;1.03;1.03;;;14.40;99.90;;;;;;4822174;29;20262;-62
2023/02/17 10:57:43;;;;;;;1.40;1.30;;;14.30;99.90;;;;;;4820997;29;20231;-63
2023/02/17 11:00:55;;;;;;;1.93;1.13;;;14.30;99.90;;;;;;4818100;29;20239;-63
2023/02/17 11:04:03;;;;;;;1.30;1.17;;;14.20;99.90;;;;;;4822507;29;20248;-63
2023/02/17 11:07:12;;;;;;;1.83;1.17;;;14.20;99.90;;;;;;4820937;29;20300;-64
2023/02/17 11:10:26;;;;;;;1.30;1.30;;;14.40;99.90;;;;;;4808969;29;20276;-63
2023/02/17 11:13:38;;;;;;;2.17;1.20;;;14.50;99.90;;;;;;4820280;29;20235;-63
2023/02/17 11:16:46;;;;;;;1.23;1.13;;;14.50;99.90;;;;;;4820570;29;20231;-63
2023/02/17 11:19:57;;;;;;;1.73;1.10;;;14.40;99.90;;;;;;4815898;29;20286;-63
2023/02/17 11:23:22;;;;;;;1.10;1.10;;;14.40;99.90;;;;;;4818268;29;20273;-63
2023/02/17 11:26:31;;;;;;;1.13;1.00;;;14.40;99.90;;;;;;4819370;29;20231;-63
2023/02/17 11:29:37;;;;;;;2.00;1.30;;;14.30;99.90;;;;;;4819752;29;20247;-63
2023/02/17 11:32:43;;;;;;;2.67;1.00;;;14.20;99.90;;;;;;4819782;29;20818;-63
2023/02/17 11:35:52;;;;;;;2.53;1.20;;;14.10;99.90;;;;;;4815282;29;20243;-63
2023/02/17 11:38:59;;;;;;;2.20;1.20;;;13.90;99.90;;;;;;4820475;29;20655;-63
2023/02/17 11:42:16;;;;;;;1.40;1.30;;;13.80;99.90;;;;;;4813162;29;20233;-63
2023/02/17 11:45:24;;;;;;;1.20;1.20;;;13.70;99.90;;;;;;4818238;29;20212;-63
2023/02/17 11:49:10;;;;;;;3.13;1.30;;;13.70;99.90;;;;;;4822580;29;20280;-63
2023/02/17 11:52:26;;;;;;;1.27;1.27;;;13.80;99.90;;;;;;4825874;29;20911;-63
2023/02/17 11:55:44;;;;;;;1.40;1.40;;;13.60;99.90;;;;;;4821456;29;20244;-63
2023/02/17 11:59:08;;;;;;;1.23;1.20;;;13.40;99.90;;;;;;4814833;29;20242;-63
2023/02/17 12:02:26;;;;;;;1.57;1.47;;;13.40;99.90;;;;;;4822177;29;20236;-63
2023/02/17 12:05:40;;;;;;;1.20;1.20;;;13.20;99.90;;;;;;4816561;29;20909;-64
2023/02/17 12:09:06;;;;;;;1.50;1.40;;;13.10;99.90;;;;;;4818930;29;20610;-63
2023/02/17 12:12:21;;;;;;;1.50;1.40;;;13.00;99.90;;;;;;4817648;29;20624;-63
2023/02/17 12:15:43;;;;;;;1.50;1.40;;;12.90;99.90;;;;;;4820445;29;20740;-63
2023/02/17 12:18:56;;;;;;;1.23;1.20;;;12.80;99.90;;;;;;4816567;29;20232;-64
2023/02/17 12:22:12;;;;;;;1.60;1.40;;;12.80;99.90;;;;;;4818249;29;20227;-63
2023/02/17 12:25:25;;;;;;;2.50;1.37;;;12.80;99.90;;;;;;4821190;29;20278;-63
2023/02/17 12:28:48;;;;;;;1.50;1.50;;;12.70;99.90;;;;;;4822728;29;20792;-63
2023/02/17 12:32:10;;;;;;;1.30;1.30;;;12.80;99.90;;;;;;4818658;29;20264;-63
2023/02/17 12:35:21;;;;;;;1.30;1.10;;;12.70;99.90;;;;;;4810752;29;20845;-64
2023/02/17 12:38:30;;;;;;;1.37;1.30;;;12.70;99.90;;;;;;4821828;29;20252;-63
2023/02/17 12:41:42;;;;;;;1.70;1.30;;;12.80;99.90;;;;;;4820776;29;20263;-63
2023/02/17 12:44:52;;;;;;;1.30;1.20;;;12.80;99.90;;;;;;4822077;29;20207;-63
2023/02/17 12:48:04;;;;;;;1.90;1.27;;;12.80;99.90;;;;;;4815928;29;20280;-64
2023/02/17 12:51:15;;;;;;;2.00;1.27;;;12.80;99.90;;;;;;4815910;29;20308;-63
2023/02/17 12:54:26;;;;;;;1.33;1.23;;;12.80;99.90;;;;;;4822717;29;20407;-63
2023/02/17 12:57:40;;;;;;;1.27;1.20;;;12.90;99.90;;;;;;4805252;29;20224;-63
2023/02/17 13:00:49;;;;;;;2.67;1.37;;;12.90;99.90;;;;;;4819502;29;20353;-64
2023/02/17 13:04:00;;;;;;;1.57;1.57;;;13.00;99.90;;;;;;4812273;29;20224;-63
2023/02/17 13:07:36;;;;;;;1.40;1.27;;;13.30;99.90;;;;;;4821847;29;20212;-63
2023/02/17 13:10:42;;;;;;;1.10;1.10;;;13.40;99.90;;;;;;4816638;29;20263;-62
2023/02/17 13:13:48;;;;;;;1.60;1.50;;;13.40;99.90;;;;;;4816866;29;20742;-63
2023/02/17 13:16:54;;;;;;;2.10;1.40;;;13.40;99.90;;;;;;4813597;29;20211;-63
2023/02/17 13:20:21;;;;;;;1.70;1.10;;;13.30;99.90;;;;;;4822378;29;20238;-63
2023/02/17 13:23:39;;;;;;;1.37;1.20;;;13.30;99.90;;;;;;4821006;29;20273;-63
2023/02/17 13:26:45;;;;;;;1.47;1.10;;;13.40;99.90;;;;;;4809078;29;20224;-63
2023/02/17 13:29:59;;;;;;;1.10;1.10;;;13.40;99.90;;;;;;4818241;29;20284;-63
2023/02/17 13:33:26;;;;;;;1.20;1.20;;;13.50;99.90;;;;;;4815085;29;20244;-63
2023/02/17 13:36:38;;;;;;;1.73;1.37;;;13.50;99.90;;;;;;4821264;29;20240;-63
2023/02/17 13:39:44;;;;;;;1.30;1.30;;;13.60;99.90;;;;;;4819871;29;20220;-63
2023/02/17 13:42:51;;;;;;;2.03;1.50;;;13.70;99.90;;;;;;4822281;29;20276;-63
2023/02/17 13:45:59;;;;;;;2.33;1.47;;;13.80;99.90;;;;;;4809030;29;20212;-63
2023/02/17 13:49:06;;;;;;;1.20;1.20;;;13.70;99.90;;;;;;4811723;29;20726;-63
2023/02/17 13:52:17;;;;;;;4.33;1.30;;;13.70;99.90;;;;;;4810299;29;20269;-63
2023/02/17 13:55:23;;;;;;;1.30;1.30;;;13.60;99.90;;;;;;4814911;29;20231;-64
2023/02/17 13:58:31;;;;;;;1.53;1.43;;;13.40;99.90;;;;;;4812006;29;20752;-64
2023/02/17 14:01:40;;;;;;;1.07;1.07;;;13.50;99.90;;;;;;4821107;29;20266;-64
2023/02/17 14:04:46;;;;;;;1.00;1.00;;;13.50;99.90;;;;;;4820386;29;20215;-64
2023/02/17 14:07:58;;;;;;;1.10;1.10;;;13.50;99.90;;;;;;4810631;29;20615;-63
2023/02/17 14:11:08;;;;;;;1.33;1.33;;;13.50;99.90;;;;;;4816609;29;20272;-64
2023/02/17 14:14:14;;;;;;;1.37;1.30;;;13.40;99.90;;;;;;4826831;29;20278;-63
2023/02/17 14:17:31;;;;;;;1.30;1.30;;;13.40;99.90;;;;;;4810515;29;20282;-63
2023/02/17 14:20:37;;;;;;;2.00;1.30;;;13.40;99.90;;;;;;4804108;29;20265;-63
2023/02/17 14:23:47;;;;;;;1.50;1.50;;;13.50;99.90;;;;;;4819311;29;20245;-63
2023/02/17 14:26:58;;;;;;;1.67;1.67;;;13.60;99.90;;;;;;4814974;29;20199;-63
2023/02/17 14:30:05;;;;;;;1.53;1.43;;;13.50;99.90;;;;;;4818255;29;20208;-63
2023/02/17 14:33:20;;;;;;;3.17;1.43;;;13.50;99.90;;;;;;4818945;29;20280;-63
2023/02/17 14:36:33;;;;;;;2.00;1.50;;;13.40;99.90;;;;;;4819338;29;20280;-63
2023/02/17 14:39:40;;;;;;;1.63;1.53;;;13.30;99.90;;;;;;4815841;29;20261;-64
2023/02/17 14:42:47;;;;;;;1.87;1.63;;;13.20;99.90;;;;;;4814031;29;20247;-63
2023/02/17 14:45:53;;;;;;;2.63;1.80;;;13.20;99.90;;;;;;4821233;29;20204;-63
2023/02/17 14:48:59;;;;;;;2.10;2.10;;;13.00;99.90;;;;;;4815336;29;20260;-63
2023/02/17 14:52:18;;;;;;;2.50;1.70;;;13.00;99.90;;;;;;4804646;29;20740;-63
2023/02/17 14:55:32;;;;;;;2.13;2.03;;;12.90;99.90;;;;;;4824101;29;20347;-63
2023/02/17 14:58:38;;;;;;;3.33;2.07;;;12.90;99.90;;;;;;4803605;29;20232;-64
2023/02/17 15:01:45;;;;;;;2.30;2.07;;;12.80;99.90;;;;;;4814288;29;20258;-63
2023/02/17 15:04:51;;;;;;;2.53;2.20;;;12.80;99.90;;;;;;4816538;29;20821;-63
2023/02/17 15:08:00;;;;;;;2.27;1.80;;;12.80;99.90;;;;;;4822878;29;20713;-63
2023/02/17 15:11:11;;;;;;;2.20;1.83;;;12.70;99.90;;;;;;4820879;29;20235;-63
2023/02/17 15:14:19;;;;;;;1.93;1.83;;;12.70;99.90;;;;;;4823566;29;20291;-63
2023/02/17 15:17:25;;;;;;;1.83;1.77;;;12.60;99.90;;;;;;4821967;29;20280;-63
2023/02/17 15:20:30;;;;;;;2.40;2.20;;;12.60;99.90;;;;;;4807855;29;20231;-63
2023/02/17 15:23:36;;;;;;;2.27;2.03;;;12.60;99.90;;;;;;4820073;29;20288;-62
2023/02/17 15:26:44;;;;;;;4.37;2.17;;;12.60;99.90;;;;;;4813118;29;20560;-64
2023/02/17 15:29:49;;;;;;;3.43;2.17;;;12.50;99.90;;;;;;4821438;29;20259;-63
2023/02/17 15:32:55;;;;;;;4.73;2.00;;;12.50;99.90;;;;;;4819558;29;20764;-62
2023/02/17 15:36:01;;;;;;;5.23;2.10;;;12.40;99.90;;;;;;4820084;29;20315;-62
2023/02/17 15:39:09;;;;;;;2.53;1.90;;;12.40;99.90;;;;;;4823676;29;20211;-63
2023/02/17 15:42:18;;;;;;;4.23;2.60;;;12.30;99.90;;;;;;4823630;29;20204;-63
2023/02/17 15:45:25;;;;;;;1.90;1.80;;;12.30;99.90;;;;;;4816914;29;20789;-63
2023/02/17 15:48:30;;;;;;;2.83;1.70;;;12.30;99.90;;;;;;4817968;29;20721;-62
2023/02/17 15:51:36;;;;;;;4.63;1.87;;;12.20;99.90;;;;;;4819977;29;20905;-62
2023/02/17 15:54:43;;;;;;;2.83;1.90;;;12.20;99.90;;;;;;4823258;29;20269;-62
2023/02/17 15:57:56;;;;;;;2.83;2.07;;;12.10;99.90;;;;;;4813028;29;20300;-63
2023/02/17 16:01:03;;;;;;;3.63;2.30;;;12.10;99.90;;;;;;4823011;29;20244;-63
2023/02/17 16:04:19;;;;;;;3.00;2.20;;;12.10;99.90;;;;;;4822347;29;20232;-62
2023/02/17 16:07:25;;;;;;;2.63;2.13;;;12.00;99.90;;;;;;4820715;29;20259;-62
2023/02/17 16:10:35;;;;;;;3.90;2.73;;;12.00;99.90;;;;;;4816227;29;20239;-63
2023/02/17 16:13:44;;;;;;;4.30;2.63;;;12.00;99.90;;;;;;4816539;29;20232;-62
2023/02/17 16:16:50;;;;;;;3.37;2.70;;;12.00;99.90;;;;;;4828470;29;20703;-63
2023/02/17 16:19:56;;;;;;;2.97;2.40;;;11.90;99.90;;;;;;4815325;29;20261;-63
2023/02/17 16:23:02;;;;;;;2.63;2.43;;;11.90;99.90;;;;;;4820985;29;20220;-63
2023/02/17 16:26:15;;;;;;;5.43;3.30;;;11.80;99.90;;;;;;4813751;29;20224;-62